Time,TemperatureF,DewpointF,PressureIn,WindDirection,WindDirectionDegrees,WindSpeedMPH,WindSpeedGustMPH,Humidity,HourlyPrecipIn,Conditions,Clouds,dailyrainin,SolarRadiationWatts/m^2,SoftwareType,DateUTC
2013-04-24 00:01:00,43.4,39.8,30.09,WNW,298,1.0,2.0,87,0.00,,---,0.00,0.00,VWS V14.01,2013-04-24 04:01:00,
2013-04-24 00:02:00,43.4,39.8,30.09,WNW,298,2.0,2.0,87,0.00,,---,0.00,0.00,VWS V14.01,2013-04-24 04:02:00,
2013-04-24 00:03:00,43.4,39.8,30.09,WNW,298,1.0,2.0,87,0.00,,---,0.00,0.00,VWS V14.01,2013-04-24 04:03:00,
2013-04-24 00:08:00,43.5,39.6,30.10,WNW,298,0.0,2.0,86,0.00,,---,0.00,0.00,VWS V14.01,2013-04-24 04:08:00,
2013-04-24 00:13:00,43.5,39.6,30.09,WNW,296,0.0,3.0,86,0.00,,---,0.00,0.00,VWS V14.01,2013-04-24 04:13:00,
2013-04-24 00:18:00,43.4,39.5,30.09,WNW,296,2.0,3.0,86,0.00,,---,0.00,0.00,VWS V14.01,2013-04-24 04:18:00,
2013-04-24 00:23:00,43.5,39.6,30.09,WNW,296,2.0,3.0,86,0.00,,---,0.00,0.00,VWS V14.01,2013-04-24 04:23:00,
2013-04-24 00:28:00,43.6,39.7,30.09,WNW,298,2.0,3.0,86,0.00,,---,0.00,0.00,VWS V14.01,2013-04-24 04:28:00,
2013-04-24 00:33:00,43.6,39.7,30.08,WNW,300,2.0,4.0,86,0.00,,---,0.00,0.00,VWS V14.01,2013-04-24 04:33:00,
2013-04-24 00:38:00,43.7,39.8,30.08,WNW,300,2.0,4.0,86,0.00,,---,0.00,0.00,VWS V14.01,2013-04-24 04:38:00,
2013-04-24 00:43:00,43.8,39.6,30.08,WNW,302,1.0,4.0,85,0.00,,---,0.00,0.00,VWS V14.01,2013-04-24 04:43:00,
2013-04-24 00:48:00,43.8,39.9,30.08,NW,311,3.0,4.0,86,0.00,,---,0.00,0.00,VWS V14.01,2013-04-24 04:48:00,
2013-04-24 00:54:00,43.8,39.6,30.08,NW,311,0.0,4.0,85,0.00,,---,0.00,0.00,VWS V14.01,2013-04-24 04:54:00,
2013-04-24 00:59:00,43.9,39.7,30.07,NW,311,2.0,4.0,85,0.00,,---,0.00,0.00,VWS V14.01,2013-04-24 04:59:00,
2013-04-24 01:04:00,44.0,39.8,30.07,NW,311,2.0,3.0,85,0.00,,---,0.00,0.00,VWS V14.01,2013-04-24 05:04:00,
2013-04-24 01:09:00,44.0,39.8,30.07,NW,311,0.0,3.0,85,0.00,,---,0.00,0.00,VWS V14.01,2013-04-24 05:09:00,
2013-04-24 01:14:00,44.0,39.5,30.07,NW,311,0.0,3.0,84,0.00,,---,0.00,0.00,VWS V14.01,2013-04-24 05:14:00,
2013-04-24 01:19:00,44.1,39.6,30.07,NW,304,1.0,5.0,84,0.00,,---,0.00,0.00,VWS V14.01,2013-04-24 05:19:00,
2013-04-24 01:24:00,44.1,39.6,30.07,NW,304,0.0,5.0,84,0.00,,---,0.00,0.00,VWS V14.01,2013-04-24 05:24:00,
2013-04-24 01:29:00,44.1,39.6,30.07,NW,304,0.0,5.0,84,0.00,,---,0.00,0.00,VWS V14.01,2013-04-24 05:29:00,
2013-04-24 01:34:00,44.0,39.8,30.07,NW,304,0.0,0.0,85,0.00,,---,0.00,0.00,VWS V14.01,2013-04-24 05:34:00,
2013-04-24 01:39:00,43.9,39.7,30.06,NW,304,0.0,0.0,85,0.00,,---,0.00,0.00,VWS V14.01,2013-04-24 05:39:00,
2013-04-24 01:44:00,43.9,39.7,30.06,NW,304,0.0,0.0,85,0.00,,---,0.00,0.00,VWS V14.01,2013-04-24 05:44:00,
2013-04-24 01:49:00,43.8,39.6,30.06,NW,304,0.0,0.0,85,0.00,,---,0.00,0.00,VWS V14.01,2013-04-24 05:49:00,
2013-04-24 01:54:00,43.8,39.6,30.05,NW,304,0.0,0.0,85,0.00,,---,0.00,0.00,VWS V14.01,2013-04-24 05:54:00,
2013-04-24 01:59:00,43.7,39.5,30.05,NW,304,2.0,2.0,85,0.00,,---,0.00,0.00,VWS V14.01,2013-04-24 05:59:00,
2013-04-24 02:04:00,43.7,39.2,30.04,NW,319,2.0,4.0,84,0.00,,---,0.00,0.00,VWS V14.01,2013-04-24 06:04:00,
2013-04-24 02:09:00,43.7,39.2,30.04,NW,325,4.0,4.0,84,0.00,,---,0.00,0.00,VWS V14.01,2013-04-24 06:09:00,
2013-04-24 02:14:00,43.7,38.9,30.04,NW,325,0.0,4.0,83,0.00,,---,0.00,0.00,VWS V14.01,2013-04-24 06:14:00,
2013-04-24 02:19:00,43.7,38.6,30.03,NNW,327,3.0,4.0,82,0.00,,---,0.00,0.00,VWS V14.01,2013-04-24 06:19:00,
2013-04-24 02:24:00,43.6,38.8,30.04,NNW,327,0.0,4.0,83,0.00,,---,0.00,0.00,VWS V14.01,2013-04-24 06:24:00,
2013-04-24 02:30:00,43.5,38.4,30.04,NNW,327,0.0,4.0,82,0.00,,---,0.00,0.00,VWS V14.01,2013-04-24 06:30:00,
2013-04-24 02:35:00,43.3,38.2,30.04,NNW,327,0.0,0.0,82,0.00,,---,0.00,0.00,VWS V14.01,2013-04-24 06:35:00,
2013-04-24 02:40:00,43.2,38.4,30.04,NNW,327,0.0,0.0,83,0.00,,---,0.00,0.00,VWS V14.01,2013-04-24 06:40:00,
2013-04-24 02:45:00,43.2,38.4,30.03,NNW,327,0.0,0.0,83,0.00,,---,0.00,0.00,VWS V14.01,2013-04-24 06:45:00,
2013-04-24 02:50:00,43.2,38.4,30.04,NNW,327,0.0,0.0,83,0.00,,---,0.00,0.00,VWS V14.01,2013-04-24 06:50:00,
2013-04-24 02:55:00,43.3,38.8,30.04,NNW,327,0.0,1.0,84,0.00,,---,0.00,0.00,VWS V14.01,2013-04-24 06:55:00,
2013-04-24 03:00:00,43.2,38.4,30.04,NNW,327,0.0,1.0,83,0.00,,---,0.00,0.00,VWS V14.01,2013-04-24 07:00:00,
2013-04-24 03:05:00,42.9,38.1,30.03,NNW,327,0.0,0.0,83,0.00,,---,0.00,0.00,VWS V14.01,2013-04-24 07:05:00,
2013-04-24 03:10:00,42.5,38.0,30.03,NNW,327,0.0,0.0,84,0.00,,---,0.00,0.00,VWS V14.01,2013-04-24 07:10:00,
2013-04-24 03:15:00,42.4,38.2,30.04,NNW,327,1.0,1.0,85,0.00,,---,0.00,0.00,VWS V14.01,2013-04-24 07:15:00,
2013-04-24 03:20:00,42.5,38.3,30.04,NNW,327,0.0,1.0,85,0.00,,---,0.00,0.00,VWS V14.01,2013-04-24 07:20:00,
2013-04-24 03:25:00,42.4,38.2,30.04,NNW,327,0.0,1.0,85,0.00,,---,0.00,0.00,VWS V14.01,2013-04-24 07:25:00,
2013-04-24 03:30:00,42.6,38.4,30.04,West,279,2.0,2.0,85,0.00,,---,0.00,0.00,VWS V14.01,2013-04-24 07:30:00,
2013-04-24 03:35:00,42.7,38.5,30.04,West,279,0.0,2.0,85,0.00,,---,0.00,0.00,VWS V14.01,2013-04-24 07:35:00,
2013-04-24 03:40:00,42.6,38.4,30.04,West,279,0.0,2.0,85,0.00,,---,0.00,0.00,VWS V14.01,2013-04-24 07:40:00,
2013-04-24 03:45:00,42.5,38.3,30.04,West,279,0.0,2.0,85,0.00,,---,0.00,0.00,VWS V14.01,2013-04-24 07:45:00,
2013-04-24 03:50:00,42.4,38.2,30.03,West,279,0.0,2.0,85,0.00,,---,0.00,0.00,VWS V14.01,2013-04-24 07:50:00,
2013-04-24 03:55:00,42.2,38.0,30.03,West,279,0.0,2.0,85,0.00,,---,0.00,0.00,VWS V14.01,2013-04-24 07:55:00,
2013-04-24 04:00:00,41.8,37.6,30.03,West,279,0.0,0.0,85,0.00,,---,0.00,0.00,VWS V14.01,2013-04-24 08:00:00,
2013-04-24 04:05:00,41.4,37.2,30.03,West,279,0.0,0.0,85,0.00,,---,0.00,0.00,VWS V14.01,2013-04-24 08:05:00,
2013-04-24 04:10:00,41.0,37.1,30.03,West,279,0.0,0.0,86,0.00,,---,0.00,0.00,VWS V14.01,2013-04-24 08:10:00,
2013-04-24 04:16:00,40.9,37.6,30.03,West,278,2.0,3.0,88,0.00,,---,0.00,0.00,VWS V14.01,2013-04-24 08:16:00,
2013-04-24 04:21:00,41.2,37.9,30.03,West,260,0.0,4.0,88,0.00,,---,0.00,0.00,VWS V14.01,2013-04-24 08:21:00,
2013-04-24 04:26:00,41.4,38.1,30.03,West,260,0.0,4.0,88,0.00,,---,0.00,0.00,VWS V14.01,2013-04-24 08:26:00,
2013-04-24 04:31:00,41.5,38.2,30.03,West,260,0.0,0.0,88,0.00,,---,0.00,0.00,VWS V14.01,2013-04-24 08:31:00,
2013-04-24 04:36:00,41.4,38.1,30.03,West,260,0.0,0.0,88,0.00,,---,0.00,0.00,VWS V14.01,2013-04-24 08:36:00,
2013-04-24 04:41:00,41.2,37.9,30.03,West,260,0.0,1.0,88,0.00,,---,0.00,0.00,VWS V14.01,2013-04-24 08:41:00,
2013-04-24 04:46:00,41.3,38.0,30.03,West,260,2.0,2.0,88,0.00,,---,0.00,0.00,VWS V14.01,2013-04-24 08:46:00,
2013-04-24 04:51:00,41.5,38.5,30.03,West,260,3.0,4.0,89,0.00,,---,0.00,0.00,VWS V14.01,2013-04-24 08:51:00,
2013-04-24 04:56:00,41.7,38.4,30.03,West,260,0.0,4.0,88,0.00,,---,0.00,0.00,VWS V14.01,2013-04-24 08:56:00,
2013-04-24 05:01:00,41.8,38.5,30.03,West,260,2.0,4.0,88,0.00,,---,0.00,0.00,VWS V14.01,2013-04-24 09:01:00,
2013-04-24 05:06:00,41.9,38.6,30.03,West,260,2.0,4.0,88,0.00,,---,0.00,0.00,VWS V14.01,2013-04-24 09:06:00,
2013-04-24 05:11:00,41.9,38.6,30.03,West,260,0.0,4.0,88,0.00,,---,0.00,0.00,VWS V14.01,2013-04-24 09:11:00,
2013-04-24 05:16:00,41.9,38.6,30.03,WSW,246,0.0,4.0,88,0.00,,---,0.00,0.00,VWS V14.01,2013-04-24 09:16:00,
2013-04-24 05:21:00,41.9,38.6,30.03,SW,220,1.0,4.0,88,0.00,,---,0.00,0.00,VWS V14.01,2013-04-24 09:21:00,
2013-04-24 05:26:00,41.8,38.5,30.04,SW,220,0.0,4.0,88,0.00,,---,0.00,0.00,VWS V14.01,2013-04-24 09:26:00,
2013-04-24 05:31:00,41.7,38.4,30.03,SW,220,0.0,1.0,88,0.00,,---,0.00,0.00,VWS V14.01,2013-04-24 09:31:00,
2013-04-24 05:36:00,41.7,38.7,30.04,SW,220,0.0,3.0,89,0.00,,---,0.00,0.00,VWS V14.01,2013-04-24 09:36:00,
2013-04-24 05:41:00,41.8,38.8,30.04,SW,220,0.0,3.0,89,0.00,,---,0.00,0.00,VWS V14.01,2013-04-24 09:41:00,
2013-04-24 05:46:00,41.8,38.8,30.03,SW,220,0.0,3.0,89,0.00,,---,0.00,0.00,VWS V14.01,2013-04-24 09:46:00,
2013-04-24 05:51:00,41.8,38.8,30.04,SW,220,0.0,3.0,89,0.00,,---,0.00,0.00,VWS V14.01,2013-04-24 09:51:00,
2013-04-24 05:56:00,41.8,38.8,30.04,SW,220,0.0,3.0,89,0.00,,---,0.00,0.00,VWS V14.01,2013-04-24 09:56:00,
2013-04-24 06:02:00,41.8,38.8,30.04,SW,220,0.0,1.0,89,0.00,,---,0.00,0.00,VWS V14.01,2013-04-24 10:02:00,
2013-04-24 06:07:00,41.8,38.8,30.04,SW,220,0.0,2.0,89,0.00,,---,0.00,0.00,VWS V14.01,2013-04-24 10:07:00,
2013-04-24 06:12:00,41.8,38.8,30.04,SW,220,0.0,2.0,89,0.00,,---,0.00,0.00,VWS V14.01,2013-04-24 10:12:00,
2013-04-24 06:17:00,41.8,38.8,30.04,SW,220,0.0,2.0,89,0.00,,---,0.00,7.00,VWS V14.01,2013-04-24 10:17:00,
2013-04-24 06:22:00,41.9,38.6,30.04,SW,220,0.0,2.0,88,0.00,,---,0.00,9.00,VWS V14.01,2013-04-24 10:22:00,
2013-04-24 06:27:00,42.0,38.7,30.04,SW,220,0.0,2.0,88,0.00,,---,0.00,12.00,VWS V14.01,2013-04-24 10:27:00,
2013-04-24 06:32:00,41.9,38.6,30.04,SW,220,0.0,1.0,88,0.00,,---,0.00,16.00,VWS V14.01,2013-04-24 10:32:00,
2013-04-24 06:37:00,42.0,38.7,30.04,SW,220,0.0,1.0,88,0.00,,---,0.00,18.00,VWS V14.01,2013-04-24 10:37:00,
2013-04-24 06:42:00,42.0,39.0,30.04,SW,220,0.0,1.0,89,0.00,,---,0.00,21.00,VWS V14.01,2013-04-24 10:42:00,
2013-04-24 06:47:00,42.2,39.2,30.04,SW,220,0.0,1.0,89,0.00,,---,0.00,25.00,VWS V14.01,2013-04-24 10:47:00,
2013-04-24 06:52:00,42.3,39.3,30.04,SW,220,2.0,2.0,89,0.00,,---,0.00,26.00,VWS V14.01,2013-04-24 10:52:00,
2013-04-24 06:57:00,42.4,39.4,30.04,SW,220,0.0,2.0,89,0.00,,---,0.00,30.00,VWS V14.01,2013-04-24 10:57:00,
2013-04-24 07:02:00,42.6,39.6,30.04,SW,220,0.0,1.0,89,0.00,,---,0.00,32.00,VWS V14.01,2013-04-24 11:02:00,
2013-04-24 07:07:00,42.9,39.9,30.04,SW,220,0.0,3.0,89,0.00,,---,0.00,33.00,VWS V14.01,2013-04-24 11:07:00,
2013-04-24 07:12:00,43.3,40.3,30.04,SW,220,0.0,3.0,89,0.00,,---,0.00,37.00,VWS V14.01,2013-04-24 11:12:00,
2013-04-24 07:17:00,43.6,40.6,30.04,SW,220,0.0,3.0,89,0.00,,---,0.00,39.00,VWS V14.01,2013-04-24 11:17:00,
2013-04-24 07:22:00,44.0,40.7,30.04,SSE,159,0.0,3.0,88,0.00,,---,0.00,40.00,VWS V14.01,2013-04-24 11:22:00,
2013-04-24 07:27:00,44.4,41.1,30.03,SSE,160,3.0,3.0,88,0.00,,---,0.00,42.00,VWS V14.01,2013-04-24 11:27:00,
2013-04-24 07:33:00,44.8,41.5,30.03,SSE,159,0.0,5.0,88,0.00,,---,0.00,44.00,VWS V14.01,2013-04-24 11:33:00,
2013-04-24 07:38:00,45.3,42.0,30.03,SSE,161,2.0,5.0,88,0.00,,---,0.00,46.00,VWS V14.01,2013-04-24 11:38:00,
2013-04-24 07:43:00,45.8,42.5,30.02,SSE,162,2.0,5.0,88,0.00,,---,0.00,46.00,VWS V14.01,2013-04-24 11:43:00,
2013-04-24 07:48:00,46.0,42.3,30.03,SE,146,2.0,5.0,87,0.00,,---,0.00,49.00,VWS V14.01,2013-04-24 11:48:00,
2013-04-24 07:53:00,46.2,42.5,30.04,SW,223,4.0,5.0,87,0.00,,---,0.00,51.00,VWS V14.01,2013-04-24 11:53:00,
2013-04-24 07:58:00,46.4,42.5,30.04,SSE,149,0.0,5.0,86,0.00,,---,0.00,53.00,VWS V14.01,2013-04-24 11:58:00,
2013-04-24 08:03:00,46.6,42.6,30.03,South,170,0.0,4.0,86,0.00,,---,0.00,53.00,VWS V14.01,2013-04-24 12:03:00,
2013-04-24 08:08:00,46.7,42.7,30.03,SSE,157,2.0,5.0,86,0.00,,---,0.00,54.00,VWS V14.01,2013-04-24 12:08:00,
2013-04-24 08:13:00,47.0,43.0,30.03,SSE,163,1.0,5.0,86,0.00,,---,0.00,56.00,VWS V14.01,2013-04-24 12:13:00,
2013-04-24 08:18:00,47.3,43.0,30.02,South,184,0.0,6.0,85,0.00,,---,0.00,56.00,VWS V14.01,2013-04-24 12:18:00,
2013-04-24 08:23:00,47.3,43.0,30.02,South,170,0.0,7.0,85,0.00,,---,0.00,60.00,VWS V14.01,2013-04-24 12:23:00,
2013-04-24 08:28:00,47.5,43.2,30.02,SSE,160,0.0,7.0,85,0.00,,---,0.00,62.00,VWS V14.01,2013-04-24 12:28:00,
2013-04-24 08:33:00,48.0,44.0,30.02,SSE,165,2.0,4.0,86,0.00,,---,0.00,63.00,VWS V14.01,2013-04-24 12:33:00,
2013-04-24 08:38:00,48.4,44.1,30.02,SE,144,3.0,8.0,85,0.00,,---,0.00,65.00,VWS V14.01,2013-04-24 12:38:00,
2013-04-24 08:43:00,48.4,43.8,30.02,SSE,166,0.0,8.0,84,0.00,,---,0.00,67.00,VWS V14.01,2013-04-24 12:43:00,
2013-04-24 08:48:00,48.5,43.9,30.02,SSE,149,2.0,8.0,84,0.00,,---,0.00,69.00,VWS V14.01,2013-04-24 12:48:00,
2013-04-24 08:53:00,48.9,44.3,30.02,SE,128,5.0,8.0,84,0.00,,---,0.00,70.00,VWS V14.01,2013-04-24 12:53:00,
2013-04-24 08:58:00,49.3,44.7,30.02,SE,144,4.0,8.0,84,0.00,,---,0.00,72.00,VWS V14.01,2013-04-24 12:58:00,
2013-04-24 09:03:00,49.7,44.8,30.02,South,175,3.0,5.0,83,0.00,,---,0.00,76.00,VWS V14.01,2013-04-24 13:03:00,
2013-04-24 09:08:00,50.1,44.8,30.01,SE,136,1.0,6.0,82,0.00,,---,0.00,79.00,VWS V14.01,2013-04-24 13:08:00,
2013-04-24 09:14:00,50.4,44.8,30.01,SE,133,1.0,8.0,81,0.00,,---,0.00,84.00,VWS V14.01,2013-04-24 13:14:00,
2013-04-24 09:19:00,50.5,44.9,30.02,SSE,148,3.0,8.0,81,0.00,,---,0.00,116.00,VWS V14.01,2013-04-24 13:19:00,
2013-04-24 09:24:00,51.0,45.4,30.01,SSE,166,4.0,8.0,81,0.00,,---,0.00,192.00,VWS V14.01,2013-04-24 13:24:00,
2013-04-24 09:29:00,51.5,45.5,30.01,SE,136,2.0,8.0,80,0.00,,---,0.00,250.00,VWS V14.01,2013-04-24 13:29:00,
2013-04-24 09:34:00,51.7,45.7,30.01,WSW,238,3.0,6.0,80,0.00,,---,0.00,255.00,VWS V14.01,2013-04-24 13:34:00,
2013-04-24 09:39:00,51.7,45.1,30.01,SSE,161,5.0,8.0,78,0.00,,---,0.00,258.00,VWS V14.01,2013-04-24 13:39:00,
2013-04-24 09:44:00,51.4,45.1,30.01,SSE,148,3.0,10.0,79,0.00,,---,0.00,156.00,VWS V14.01,2013-04-24 13:44:00,
2013-04-24 09:49:00,51.5,45.5,30.01,South,171,4.0,10.0,80,0.00,,---,0.00,100.00,VWS V14.01,2013-04-24 13:49:00,
2013-04-24 09:54:00,52.1,46.1,30.00,SSW,194,0.0,10.0,80,0.00,,---,0.00,146.00,VWS V14.01,2013-04-24 13:54:00,
2013-04-24 09:59:00,52.8,46.5,30.00,SE,137,3.0,10.0,79,0.00,,---,0.00,330.00,VWS V14.01,2013-04-24 13:59:00,
2013-04-24 10:04:00,53.3,46.6,30.00,East,96,0.0,6.0,78,0.00,,---,0.00,548.00,VWS V14.01,2013-04-24 14:04:00,
2013-04-24 10:09:00,53.7,46.7,30.00,SW,217,4.0,7.0,77,0.00,,---,0.00,624.00,VWS V14.01,2013-04-24 14:09:00,
2013-04-24 10:14:00,53.9,46.5,30.00,SSE,154,1.0,8.0,76,0.00,,---,0.00,647.00,VWS V14.01,2013-04-24 14:14:00,
2013-04-24 10:19:00,54.2,47.2,30.00,South,188,4.0,10.0,77,0.00,,---,0.00,657.00,VWS V14.01,2013-04-24 14:19:00,
2013-04-24 10:24:00,54.6,47.2,30.00,SSE,149,3.0,10.0,76,0.00,,---,0.00,673.00,VWS V14.01,2013-04-24 14:24:00,
2013-04-24 10:29:00,55.0,47.9,29.99,SE,126,0.0,10.0,77,0.00,,---,0.00,677.00,VWS V14.01,2013-04-24 14:29:00,
2013-04-24 10:34:00,55.6,47.8,29.99,SE,144,5.0,11.0,75,0.00,,---,0.00,696.00,VWS V14.01,2013-04-24 14:34:00,
2013-04-24 10:39:00,55.9,48.5,29.99,SSW,201,0.0,11.0,76,0.00,,---,0.00,708.00,VWS V14.01,2013-04-24 14:39:00,
2013-04-24 10:44:00,56.0,48.2,29.99,ESE,113,2.0,11.0,75,0.00,,---,0.00,715.00,VWS V14.01,2013-04-24 14:44:00,
2013-04-24 10:50:00,56.0,47.8,29.99,SSE,150,3.0,11.0,74,0.00,,---,0.00,729.00,VWS V14.01,2013-04-24 14:50:00,
2013-04-24 10:55:00,56.3,48.1,29.99,SE,146,4.0,11.0,74,0.00,,---,0.00,738.00,VWS V14.01,2013-04-24 14:55:00,
2013-04-24 11:00:00,56.3,48.1,29.98,SE,141,2.0,11.0,74,0.00,,---,0.00,752.00,VWS V14.01,2013-04-24 15:00:00,
2013-04-24 11:05:00,56.5,48.7,29.98,SSE,148,1.0,4.0,75,0.00,,---,0.00,758.00,VWS V14.01,2013-04-24 15:05:00,
2013-04-24 11:10:00,56.9,48.7,29.98,SE,142,3.0,9.0,74,0.00,,---,0.00,768.00,VWS V14.01,2013-04-24 15:10:00,
2013-04-24 11:15:00,57.0,48.8,29.97,South,177,2.0,9.0,74,0.00,,---,0.00,766.00,VWS V14.01,2013-04-24 15:15:00,
2013-04-24 11:20:00,57.3,49.1,29.97,SSE,159,2.0,9.0,74,0.00,,---,0.00,784.00,VWS V14.01,2013-04-24 15:20:00,
2013-04-24 11:25:00,57.2,48.6,29.97,South,179,2.0,9.0,73,0.00,,---,0.00,796.00,VWS V14.01,2013-04-24 15:25:00,
2013-04-24 11:30:00,57.4,49.5,29.97,South,174,2.0,5.0,75,0.00,,---,0.00,803.00,VWS V14.01,2013-04-24 15:30:00,
2013-04-24 11:35:00,57.8,49.2,29.96,South,172,2.0,5.0,73,0.00,,---,0.00,812.00,VWS V14.01,2013-04-24 15:35:00,
2013-04-24 11:40:00,57.7,49.5,29.96,South,181,2.0,8.0,74,0.00,,---,0.00,817.00,VWS V14.01,2013-04-24 15:40:00,
2013-04-24 11:45:00,58.2,50.3,29.96,SSE,150,3.0,8.0,75,0.00,,---,0.00,823.00,VWS V14.01,2013-04-24 15:45:00,
2013-04-24 11:50:00,58.6,50.3,29.96,ESE,108,0.0,8.0,74,0.00,,---,0.00,826.00,VWS V14.01,2013-04-24 15:50:00,
2013-04-24 11:55:00,59.1,50.5,29.96,ESE,119,0.0,8.0,73,0.00,,---,0.00,838.00,VWS V14.01,2013-04-24 15:55:00,
2013-04-24 12:00:00,59.6,50.6,29.96,SW,219,1.0,3.0,72,0.00,,---,0.00,842.00,VWS V14.01,2013-04-24 16:00:00,
2013-04-24 12:05:00,60.0,50.6,29.95,SE,135,0.0,9.0,71,0.00,,---,0.00,853.00,VWS V14.01,2013-04-24 16:05:00,
2013-04-24 12:11:00,60.3,50.9,29.95,SE,130,0.0,9.0,71,0.00,,---,0.00,853.00,VWS V14.01,2013-04-24 16:11:00,
2013-04-24 12:16:00,60.6,51.2,29.94,South,191,3.0,9.0,71,0.00,,---,0.00,860.00,VWS V14.01,2013-04-24 16:16:00,
2013-04-24 12:21:00,61.0,51.2,29.94,SE,142,1.0,10.0,70,0.00,,---,0.00,870.00,VWS V14.01,2013-04-24 16:21:00,
2013-04-24 12:26:00,61.2,51.3,29.93,ESE,106,8.0,10.0,70,0.00,,---,0.00,870.00,VWS V14.01,2013-04-24 16:26:00,
2013-04-24 12:31:00,61.9,52.0,29.93,SSE,159,0.0,1.0,70,0.00,,---,0.00,870.00,VWS V14.01,2013-04-24 16:31:00,
2013-04-24 12:36:00,62.6,53.8,29.93,SE,134,1.0,3.0,73,0.00,,---,0.00,877.00,VWS V14.01,2013-04-24 16:36:00,
2013-04-24 12:41:00,63.2,53.3,29.93,SSE,156,2.0,7.0,70,0.00,,---,0.00,875.00,VWS V14.01,2013-04-24 16:41:00,
2013-04-24 12:46:00,63.6,52.5,29.92,SW,227,6.0,7.0,67,0.00,,---,0.00,858.00,VWS V14.01,2013-04-24 16:46:00,
2013-04-24 12:51:00,63.9,53.1,29.92,SE,136,1.0,7.0,68,0.00,,---,0.00,881.00,VWS V14.01,2013-04-24 16:51:00,
2013-04-24 12:56:00,64.4,54.0,29.92,SSE,150,3.0,7.0,69,0.00,,---,0.00,881.00,VWS V14.01,2013-04-24 16:56:00,
2013-04-24 13:01:00,64.4,52.8,29.91,SSE,150,6.0,6.0,66,0.00,,---,0.00,886.00,VWS V14.01,2013-04-24 17:01:00,
2013-04-24 13:06:00,64.5,52.5,29.91,South,173,5.0,8.0,65,0.00,,---,0.00,888.00,VWS V14.01,2013-04-24 17:06:00,
2013-04-24 13:11:00,64.5,52.5,29.91,ESE,104,1.0,8.0,65,0.00,,---,0.00,888.00,VWS V14.01,2013-04-24 17:11:00,
2013-04-24 13:16:00,64.9,53.7,29.90,East,100,2.0,8.0,67,0.00,,---,0.00,888.00,VWS V14.01,2013-04-24 17:16:00,
2013-04-24 13:21:00,65.2,53.6,29.90,East,101,1.0,8.0,66,0.00,,---,0.00,893.00,VWS V14.01,2013-04-24 17:21:00,
2013-04-24 13:26:00,65.6,53.5,29.89,SE,139,1.0,8.0,65,0.00,,---,0.00,860.00,VWS V14.01,2013-04-24 17:26:00,
2013-04-24 13:31:00,65.6,53.5,29.89,East,90,3.0,7.0,65,0.00,,---,0.00,888.00,VWS V14.01,2013-04-24 17:31:00,
2013-04-24 13:36:00,65.7,54.5,29.89,East,92,0.0,7.0,67,0.00,,---,0.00,882.00,VWS V14.01,2013-04-24 17:36:00,
2013-04-24 13:41:00,65.7,54.0,29.89,ESE,104,2.0,7.0,66,0.00,,---,0.00,875.00,VWS V14.01,2013-04-24 17:41:00,
2013-04-24 13:46:00,65.9,54.2,29.88,SSW,192,3.0,7.0,66,0.00,,---,0.00,835.00,VWS V14.01,2013-04-24 17:46:00,
2013-04-24 13:52:00,65.8,53.7,29.88,ESE,103,3.0,8.0,65,0.00,,---,0.00,874.00,VWS V14.01,2013-04-24 17:52:00,
2013-04-24 13:57:00,65.7,54.0,29.87,East,87,5.0,9.0,66,0.00,,---,0.00,868.00,VWS V14.01,2013-04-24 17:57:00,
2013-04-24 14:02:00,65.6,54.0,29.87,SE,131,1.0,7.0,66,0.00,,---,0.00,865.00,VWS V14.01,2013-04-24 18:02:00,
2013-04-24 14:07:00,65.9,54.2,29.87,ESE,102,1.0,8.0,66,0.00,,---,0.00,863.00,VWS V14.01,2013-04-24 18:07:00,
2013-04-24 14:12:00,66.3,53.8,29.87,East,99,3.0,9.0,64,0.00,,---,0.00,858.00,VWS V14.01,2013-04-24 18:12:00,
2013-04-24 14:17:00,66.3,53.8,29.86,East,90,5.0,9.0,64,0.00,,---,0.00,853.00,VWS V14.01,2013-04-24 18:17:00,
2013-04-24 14:22:00,66.1,53.6,29.86,South,184,3.0,9.0,64,0.00,,---,0.00,854.00,VWS V14.01,2013-04-24 18:22:00,
2013-04-24 14:27:00,66.2,54.1,29.86,SSE,160,1.0,9.0,65,0.00,,---,0.00,844.00,VWS V14.01,2013-04-24 18:27:00,
2013-04-24 14:32:00,66.6,54.9,29.85,ENE,78,4.0,6.0,66,0.00,,---,0.00,779.00,VWS V14.01,2013-04-24 18:32:00,
2013-04-24 14:37:00,66.3,54.2,29.85,East,101,2.0,10.0,65,0.00,,---,0.00,831.00,VWS V14.01,2013-04-24 18:37:00,
2013-04-24 14:42:00,66.2,53.7,29.85,SE,131,2.0,10.0,64,0.00,,---,0.00,817.00,VWS V14.01,2013-04-24 18:42:00,
2013-04-24 14:47:00,66.3,53.8,29.85,East,100,5.0,10.0,64,0.00,,---,0.00,817.00,VWS V14.01,2013-04-24 18:47:00,
2013-04-24 14:52:00,66.6,54.5,29.85,East,91,3.0,10.0,65,0.00,,---,0.00,805.00,VWS V14.01,2013-04-24 18:52:00,
2013-04-24 14:57:00,67.1,54.1,29.85,East,90,8.0,10.0,63,0.00,,---,0.00,796.00,VWS V14.01,2013-04-24 18:57:00,
2013-04-24 15:02:00,67.2,54.6,29.84,ESE,105,1.0,9.0,64,0.00,,---,0.00,795.00,VWS V14.01,2013-04-24 19:02:00,
2013-04-24 15:07:00,67.2,55.0,29.84,East,90,5.0,9.0,65,0.00,,---,0.00,791.00,VWS V14.01,2013-04-24 19:07:00,
2013-04-24 15:12:00,67.1,55.0,29.83,East,86,7.0,9.0,65,0.00,,---,0.00,791.00,VWS V14.01,2013-04-24 19:12:00,
2013-04-24 15:17:00,67.1,55.4,29.83,East,92,5.0,9.0,66,0.00,,---,0.00,777.00,VWS V14.01,2013-04-24 19:17:00,
2013-04-24 15:23:00,67.1,54.5,29.82,ESE,114,1.0,10.0,64,0.00,,---,0.00,701.00,VWS V14.01,2013-04-24 19:23:00,
2013-04-24 15:28:00,67.6,55.4,29.82,ESE,107,7.0,10.0,65,0.00,,---,0.00,642.00,VWS V14.01,2013-04-24 19:28:00,
2013-04-24 15:33:00,68.0,55.4,29.83,SE,134,2.0,6.0,64,0.00,,---,0.00,680.00,VWS V14.01,2013-04-24 19:33:00,
2013-04-24 15:38:00,68.2,55.1,29.83,East,91,6.0,8.0,63,0.00,,---,0.00,737.00,VWS V14.01,2013-04-24 19:38:00,
2013-04-24 15:43:00,68.4,56.2,29.82,SE,142,2.0,8.0,65,0.00,,---,0.00,754.00,VWS V14.01,2013-04-24 19:43:00,
2013-04-24 15:48:00,68.8,55.7,29.82,East,94,2.0,9.0,63,0.00,,---,0.00,687.00,VWS V14.01,2013-04-24 19:48:00,
2013-04-24 15:53:00,68.7,56.0,29.82,ESE,103,5.0,9.0,64,0.00,,---,0.00,714.00,VWS V14.01,2013-04-24 19:53:00,
2013-04-24 15:58:00,68.4,55.3,29.81,East,92,11.0,11.0,63,0.00,,---,0.00,675.00,VWS V14.01,2013-04-24 19:58:00,
2013-04-24 16:03:00,68.4,55.8,29.81,East,94,2.0,6.0,64,0.00,,---,0.00,647.00,VWS V14.01,2013-04-24 20:03:00,
2013-04-24 16:08:00,68.6,56.0,29.81,ESE,111,4.0,6.0,64,0.00,,---,0.00,629.00,VWS V14.01,2013-04-24 20:08:00,
2013-04-24 16:13:00,68.6,56.4,29.81,South,177,9.0,9.0,65,0.00,,---,0.00,429.00,VWS V14.01,2013-04-24 20:13:00,
2013-04-24 16:18:00,68.6,56.0,29.81,East,88,3.0,9.0,64,0.00,,---,0.00,471.00,VWS V14.01,2013-04-24 20:18:00,
2013-04-24 16:23:00,68.7,56.9,29.81,East,90,5.0,9.0,66,0.00,,---,0.00,524.00,VWS V14.01,2013-04-24 20:23:00,
2013-04-24 16:28:00,68.6,56.0,29.82,SSE,148,6.0,9.0,64,0.00,,---,0.00,406.00,VWS V14.01,2013-04-24 20:28:00,
2013-04-24 16:33:00,68.4,56.2,29.81,ESE,109,1.0,6.0,65,0.00,,---,0.00,267.00,VWS V14.01,2013-04-24 20:33:00,
2013-04-24 16:38:00,67.9,55.7,29.81,East,98,5.0,9.0,65,0.00,,---,0.00,318.00,VWS V14.01,2013-04-24 20:38:00,
2013-04-24 16:43:00,67.8,56.5,29.80,ESE,107,4.0,9.0,67,0.00,,---,0.00,274.00,VWS V14.01,2013-04-24 20:43:00,
2013-04-24 16:48:00,67.7,56.0,29.80,East,94,3.0,9.0,66,0.00,,---,0.00,299.00,VWS V14.01,2013-04-24 20:48:00,
2013-04-24 16:53:00,67.7,56.4,29.80,SSE,155,2.0,9.0,67,0.00,,---,0.00,309.00,VWS V14.01,2013-04-24 20:53:00,
2013-04-24 16:58:00,67.8,56.0,29.79,East,96,5.0,9.0,66,0.00,,---,0.00,276.00,VWS V14.01,2013-04-24 20:58:00,
2013-04-24 17:04:00,67.6,55.8,29.79,ESE,105,3.0,8.0,66,0.00,,---,0.00,287.00,VWS V14.01,2013-04-24 21:04:00,
2013-04-24 17:09:00,67.6,56.3,29.78,East,95,5.0,8.0,67,0.00,,---,0.00,332.00,VWS V14.01,2013-04-24 21:09:00,
2013-04-24 17:14:00,67.3,56.0,29.78,East,91,6.0,11.0,67,0.00,,---,0.00,220.00,VWS V14.01,2013-04-24 21:14:00,
2013-04-24 17:19:00,66.9,56.0,29.77,East,94,7.0,11.0,68,0.00,,---,0.00,230.00,VWS V14.01,2013-04-24 21:19:00,
2013-04-24 17:24:00,66.8,56.3,29.77,East,98,1.0,11.0,69,0.00,,---,0.00,295.00,VWS V14.01,2013-04-24 21:24:00,
2013-04-24 17:29:00,67.0,56.1,29.77,East,98,6.0,11.0,68,0.00,,---,0.00,276.00,VWS V14.01,2013-04-24 21:29:00,
2013-04-24 17:34:00,67.0,56.1,29.76,ESE,103,2.0,9.0,68,0.00,,---,0.00,185.00,VWS V14.01,2013-04-24 21:34:00,
2013-04-24 17:39:00,66.7,55.4,29.76,East,97,2.0,9.0,67,0.00,,---,0.00,160.00,VWS V14.01,2013-04-24 21:39:00,
2013-04-24 17:44:00,66.6,55.7,29.77,East,92,6.0,9.0,68,0.00,,---,0.00,181.00,VWS V14.01,2013-04-24 21:44:00,
2013-04-24 17:49:00,66.4,55.9,29.77,East,101,7.0,11.0,69,0.00,,---,0.00,169.00,VWS V14.01,2013-04-24 21:49:00,
2013-04-24 17:54:00,66.3,55.4,29.77,ESE,104,3.0,11.0,68,0.00,,---,0.00,206.00,VWS V14.01,2013-04-24 21:54:00,
2013-04-24 17:59:00,66.4,55.9,29.77,East,96,5.0,11.0,69,0.00,,---,0.00,186.00,VWS V14.01,2013-04-24 21:59:00,
2013-04-24 18:04:00,66.3,55.8,29.77,East,96,3.0,10.0,69,0.00,,---,0.00,139.00,VWS V14.01,2013-04-24 22:04:00,
2013-04-24 18:09:00,66.2,55.7,29.77,East,90,2.0,10.0,69,0.00,,---,0.00,111.00,VWS V14.01,2013-04-24 22:09:00,
2013-04-24 18:14:00,65.9,55.5,29.78,East,95,6.0,10.0,69,0.00,,---,0.00,97.00,VWS V14.01,2013-04-24 22:14:00,
2013-04-24 18:19:00,65.7,55.7,29.77,East,97,1.0,10.0,70,0.00,,---,0.00,88.00,VWS V14.01,2013-04-24 22:19:00,
2013-04-24 18:24:00,65.5,55.5,29.77,East,95,5.0,10.0,70,0.00,,---,0.00,76.00,VWS V14.01,2013-04-24 22:24:00,
2013-04-24 18:29:00,65.5,55.5,29.76,East,99,2.0,13.0,70,0.00,,---,0.00,69.00,VWS V14.01,2013-04-24 22:29:00,
2013-04-24 18:34:00,65.3,55.3,29.76,East,92,11.0,13.0,70,0.00,,---,0.00,69.00,VWS V14.01,2013-04-24 22:34:00,
2013-04-24 18:39:00,65.2,55.2,29.76,East,94,2.0,13.0,70,0.00,,---,0.00,56.00,VWS V14.01,2013-04-24 22:39:00,
2013-04-24 18:45:00,65.0,55.4,29.76,East,96,1.0,13.0,71,0.00,,---,0.00,42.00,VWS V14.01,2013-04-24 22:45:00,
2013-04-24 18:50:00,64.9,55.3,29.77,East,95,6.0,13.0,71,0.00,,---,0.00,32.00,VWS V14.01,2013-04-24 22:50:00,
2013-04-24 18:55:00,64.9,55.3,29.77,East,89,3.0,13.0,71,0.00,,---,0.00,26.00,VWS V14.01,2013-04-24 22:55:00,
2013-04-24 19:00:00,64.7,55.1,29.77,East,80,3.0,13.0,71,0.00,,---,0.00,25.00,VWS V14.01,2013-04-24 23:00:00,
2013-04-24 19:05:00,64.6,55.0,29.78,ESE,103,3.0,8.0,71,0.00,,---,0.00,23.00,VWS V14.01,2013-04-24 23:05:00,
2013-04-24 19:10:00,64.5,54.9,29.78,East,101,0.0,8.0,71,0.00,,---,0.00,18.00,VWS V14.01,2013-04-24 23:10:00,
2013-04-24 19:15:00,64.4,54.8,29.78,SSE,149,5.0,8.0,71,0.00,,---,0.00,14.00,VWS V14.01,2013-04-24 23:15:00,
2013-04-24 19:20:00,64.3,54.7,29.78,SE,139,0.0,8.0,71,0.00,,---,0.00,12.00,VWS V14.01,2013-04-24 23:20:00,
2013-04-24 19:25:00,64.3,54.7,29.79,SSE,159,0.0,8.0,71,0.00,,---,0.00,11.00,VWS V14.01,2013-04-24 23:25:00,
2013-04-24 19:30:00,64.2,55.0,29.79,SE,146,2.0,2.0,72,0.00,,---,0.00,9.00,VWS V14.01,2013-04-24 23:30:00,
2013-04-24 19:35:00,64.0,54.8,29.79,SSE,159,0.0,3.0,72,0.00,,---,0.00,5.00,VWS V14.01,2013-04-24 23:35:00,
2013-04-24 19:40:00,64.0,54.8,29.79,SE,140,0.0,3.0,72,0.00,,---,0.00,0.00,VWS V14.01,2013-04-24 23:40:00,
2013-04-24 19:45:00,63.9,54.7,29.80,SE,128,0.0,6.0,72,0.00,,---,0.00,0.00,VWS V14.01,2013-04-24 23:45:00,
2013-04-24 19:50:00,63.8,54.6,29.80,SE,130,0.0,6.0,72,0.00,,---,0.00,0.00,VWS V14.01,2013-04-24 23:50:00,
2013-04-24 19:55:00,63.6,54.4,29.79,East,97,0.0,6.0,72,0.00,,---,0.00,0.00,VWS V14.01,2013-04-24 23:55:00,
2013-04-24 20:00:00,63.4,54.6,29.79,ESE,108,2.0,3.0,73,0.00,,---,0.00,0.00,VWS V14.01,2013-04-25 00:00:00,
2013-04-24 20:05:00,63.3,54.5,29.79,SE,131,0.0,7.0,73,0.00,,---,0.00,0.00,VWS V14.01,2013-04-25 00:05:00,
2013-04-24 20:10:00,63.1,54.3,29.79,ESE,121,1.0,7.0,73,0.00,,---,0.00,0.00,VWS V14.01,2013-04-25 00:10:00,
2013-04-24 20:15:00,62.9,54.5,29.79,ESE,112,0.0,7.0,74,0.00,,---,0.00,0.00,VWS V14.01,2013-04-25 00:15:00,
2013-04-24 20:20:00,62.8,54.4,29.79,East,96,1.0,7.0,74,0.00,,---,0.00,0.00,VWS V14.01,2013-04-25 00:20:00,
2013-04-24 20:26:00,62.7,54.3,29.79,East,97,0.0,7.0,74,0.00,,---,0.00,0.00,VWS V14.01,2013-04-25 00:26:00,
2013-04-24 20:31:00,62.7,54.7,29.79,East,97,0.0,0.0,75,0.00,,---,0.00,0.00,VWS V14.01,2013-04-25 00:31:00,
2013-04-24 20:36:00,62.6,54.6,29.79,East,85,3.0,3.0,75,0.00,,---,0.00,0.00,VWS V14.01,2013-04-25 00:36:00,
2013-04-24 20:41:00,62.7,54.7,29.79,East,94,6.0,6.0,75,0.00,,---,0.00,0.00,VWS V14.01,2013-04-25 00:41:00,
2013-04-24 20:46:00,62.7,54.7,29.79,East,95,1.0,6.0,75,0.00,,---,0.00,0.00,VWS V14.01,2013-04-25 00:46:00,
2013-04-24 20:51:00,62.7,54.7,29.79,East,96,1.0,6.0,75,0.00,,---,0.00,0.00,VWS V14.01,2013-04-25 00:51:00,
2013-04-24 20:56:00,62.6,54.6,29.80,ESE,107,1.0,6.0,75,0.00,,---,0.00,0.00,VWS V14.01,2013-04-25 00:56:00,
2013-04-24 21:01:00,62.6,54.6,29.80,East,96,0.0,5.0,75,0.00,,---,0.00,0.00,VWS V14.01,2013-04-25 01:01:00,
2013-04-24 21:06:00,62.5,54.5,29.80,East,90,2.0,6.0,75,0.00,,---,0.00,0.00,VWS V14.01,2013-04-25 01:06:00,
2013-04-24 21:11:00,62.5,54.5,29.82,South,175,1.0,6.0,75,0.00,,---,0.00,0.00,VWS V14.01,2013-04-25 01:11:00,
2013-04-24 21:16:00,62.4,54.4,29.82,SSE,153,0.0,6.0,75,0.00,,---,0.00,0.00,VWS V14.01,2013-04-25 01:16:00,
2013-04-24 21:21:00,62.4,54.4,29.82,SSE,155,0.0,6.0,75,0.00,,---,0.00,0.00,VWS V14.01,2013-04-25 01:21:00,
2013-04-24 21:26:00,62.4,54.4,29.82,ENE,70,0.0,7.0,75,0.00,,---,0.00,0.00,VWS V14.01,2013-04-25 01:26:00,
2013-04-24 21:31:00,62.3,54.7,29.82,ESE,113,0.0,1.0,76,0.00,,---,0.00,0.00,VWS V14.01,2013-04-25 01:31:00,
2013-04-24 21:36:00,62.2,54.5,29.81,East,101,0.0,5.0,76,0.00,,---,0.00,0.00,VWS V14.01,2013-04-25 01:36:00,
2013-04-24 21:41:00,62.1,54.5,29.82,East,80,0.0,5.0,76,0.00,,---,0.00,0.00,VWS V14.01,2013-04-25 01:41:00,
2013-04-24 21:46:00,62.0,54.4,29.82,SE,140,1.0,5.0,76,0.00,,---,0.00,0.00,VWS V14.01,2013-04-25 01:46:00,
2013-04-24 21:52:00,61.8,54.5,29.82,SE,137,0.0,5.0,77,0.00,,---,0.00,0.00,VWS V14.01,2013-04-25 01:52:00,
2013-04-24 21:57:00,61.7,54.4,29.83,SSE,168,6.0,6.0,77,0.00,,---,0.00,0.00,VWS V14.01,2013-04-25 01:57:00,
2013-04-24 22:02:00,61.6,54.7,29.83,ESE,115,0.0,0.0,78,0.00,,---,0.00,0.00,VWS V14.01,2013-04-25 02:02:00,
2013-04-24 22:07:00,61.5,54.6,29.82,SSE,164,0.0,2.0,78,0.00,,---,0.00,0.00,VWS V14.01,2013-04-25 02:07:00,
2013-04-24 22:12:00,61.4,54.5,29.83,SSE,164,1.0,2.0,78,0.00,,---,0.00,0.00,VWS V14.01,2013-04-25 02:12:00,
2013-04-24 22:17:00,61.3,54.7,29.83,ESE,103,0.0,3.0,79,0.00,,---,0.00,0.00,VWS V14.01,2013-04-25 02:17:00,
2013-04-24 22:22:00,61.3,54.7,29.83,SSE,152,2.0,4.0,79,0.00,,---,0.00,0.00,VWS V14.01,2013-04-25 02:22:00,
2013-04-24 22:27:00,61.4,54.8,29.82,SE,127,0.0,4.0,79,0.00,,---,0.00,0.00,VWS V14.01,2013-04-25 02:27:00,
2013-04-24 22:32:00,61.2,55.0,29.82,ESE,121,0.0,2.0,80,0.00,,---,0.00,0.00,VWS V14.01,2013-04-25 02:32:00,
2013-04-24 22:37:00,60.9,55.0,29.82,ESE,121,0.0,2.0,81,0.00,,---,0.00,0.00,VWS V14.01,2013-04-25 02:37:00,
2013-04-24 22:42:00,60.7,54.8,29.82,ESE,121,0.0,2.0,81,0.00,,---,0.00,0.00,VWS V14.01,2013-04-25 02:42:00,
2013-04-24 22:47:00,60.6,54.8,29.82,ESE,121,0.0,2.0,81,0.00,,---,0.00,0.00,VWS V14.01,2013-04-25 02:47:00,
2013-04-24 22:52:00,60.6,54.8,29.82,ESE,121,1.0,2.0,81,0.00,,---,0.00,0.00,VWS V14.01,2013-04-25 02:52:00,
2013-04-24 22:57:00,60.5,55.0,29.82,SE,134,8.0,8.0,82,0.00,,---,0.00,0.00,VWS V14.01,2013-04-25 02:57:00,
2013-04-24 23:02:00,60.6,55.1,29.82,ESE,119,0.0,5.0,82,0.00,,---,0.00,0.00,VWS V14.01,2013-04-25 03:02:00,
2013-04-24 23:07:00,60.8,54.9,29.82,SSE,165,0.0,5.0,81,0.00,,---,0.00,0.00,VWS V14.01,2013-04-25 03:07:00,
2013-04-24 23:12:00,61.4,55.5,29.82,SW,231,5.0,12.0,81,0.00,,---,0.00,0.00,VWS V14.01,2013-04-25 03:12:00,
2013-04-24 23:17:00,61.9,55.3,29.83,SE,146,2.0,14.0,79,0.00,,---,0.00,0.00,VWS V14.01,2013-04-25 03:17:00,
2013-04-24 23:22:00,62.2,55.6,29.82,SW,234,6.0,14.0,79,0.00,,---,0.00,0.00,VWS V14.01,2013-04-25 03:22:00,
2013-04-24 23:28:00,62.2,56.0,29.83,South,182,0.0,14.0,80,0.00,,---,0.00,0.00,VWS V14.01,2013-04-25 03:28:00,
2013-04-24 23:33:00,61.8,55.9,29.83,SW,217,4.0,10.0,81,0.00,,---,0.00,0.00,VWS V14.01,2013-04-25 03:33:00,
2013-04-24 23:38:00,61.4,56.2,29.82,South,184,3.0,10.0,83,0.00,,---,0.00,0.00,VWS V14.01,2013-04-25 03:38:00,
2013-04-24 23:43:00,60.9,56.0,29.82,SSE,158,4.0,10.0,84,0.00,,---,0.00,0.00,VWS V14.01,2013-04-25 03:43:00,
2013-04-24 23:48:00,60.7,56.2,29.83,South,171,3.0,10.0,85,0.00,,---,0.00,0.00,VWS V14.01,2013-04-25 03:48:00,
2013-04-24 23:53:00,60.5,56.0,29.83,SSE,149,1.0,10.0,85,0.00,,---,0.00,0.00,VWS V14.01,2013-04-25 03:53:00,
2013-04-24 23:58:00,60.5,56.0,29.83,SSE,167,4.0,10.0,85,0.00,,---,0.00,0.00,VWS V14.01,2013-04-25 03:58:00,